Current | Forecast
Updated: 9:30 PM EET on December 12, 2017
Observed at L'viv, Ukraine
Temperature 10°C
Humidity 71%
Dew Point 5°C
Wind WSW at 11 km/h
Pressure 1010 hPa (Steady)
Conditions Mostly Cloudy
Visibility 10.0 kilometers
UV 0 out of 16
Clouds Mostly Cloudy (BKN) : 1127 m
Yesterday's Maximum 9°C
Yesterday's Minimum -1°C approx.
Yesterday's Heating Degree Days 26 approx.
Sunrise8:08 AM EET
Sunset4:21 PM EET
Moon Rise1:42 AM EET
Moon Set1:51 PM EET
Moon PhaseMoon Phase
Waning Crescent
Raw METARMETAR UKLL 121930Z 24003MPS 9999 BKN037 10/05 Q1010 R31/CLRD// NOSIG


Monday
. High: 62° F.
Tuesday
. High: 60° F.
Wednesday
. High: 75° F.
Thursday
. High: 78° F.
Friday
. High: 69° F.
Saturday
. High: 64° F.
Sunday
. High: 69° F.
Monday
. High: 77° F.

Units: English | Metric

Find the Weather for any City, State or Zipcode, or Country:

U.S. State List | Severe Weather | Tropical Storms | Ski Conditions
United States | Canada | Central America | South America | Asia | Europe | Australia | Africa | Islands

Weather Underground

© Copyright 2017
The Weather Company, LLC